sensor_id;sensor_type;location;lat;lon;timestamp;temperature;humidity
8178;DHT22;4130;48.740;9.132;2022-07-23T00:01:13;23.40;96.20
8178;DHT22;4130;48.740;9.132;2022-07-23T00:03:41;23.30;96.20
8178;DHT22;4130;48.740;9.132;2022-07-23T00:06:08;24.00;96.50
8178;DHT22;4130;48.740;9.132;2022-07-23T00:08:35;23.20;96.20
8178;DHT22;4130;48.740;9.132;2022-07-23T00:11:01;23.20;96.20
8178;DHT22;4130;48.740;9.132;2022-07-23T00:13:28;23.10;96.10
8178;DHT22;4130;48.740;9.132;2022-07-23T00:15:55;23.10;96.20
8178;DHT22;4130;48.740;9.132;2022-07-23T00:18:22;23.10;96.30
8178;DHT22;4130;48.740;9.132;2022-07-23T00:20:51;23.00;96.40
8178;DHT22;4130;48.740;9.132;2022-07-23T00:23:18;22.90;96.60
8178;DHT22;4130;48.740;9.132;2022-07-23T00:25:45;22.90;96.70
8178;DHT22;4130;48.740;9.132;2022-07-23T00:28:11;22.90;96.70
8178;DHT22;4130;48.740;9.132;2022-07-23T00:30:38;22.80;96.70
8178;DHT22;4130;48.740;9.132;2022-07-23T00:33:06;22.70;97.10
8178;DHT22;4130;48.740;9.132;2022-07-23T00:35:35;22.60;97.20
8178;DHT22;4130;48.740;9.132;2022-07-23T00:38:04;22.50;97.90
8178;DHT22;4130;48.740;9.132;2022-07-23T00:40:31;22.20;99.40
8178;DHT22;4130;48.740;9.132;2022-07-23T00:42:58;21.80;99.90
8178;DHT22;4130;48.740;9.132;2022-07-23T00:45:25;21.20;99.90
8178;DHT22;4130;48.740;9.132;2022-07-23T00:47:52;20.70;99.90
8178;DHT22;4130;48.740;9.132;2022-07-23T00:50:19;20.20;99.90
8178;DHT22;4130;48.740;9.132;2022-07-23T00:52:46;19.90;99.90
8178;DHT22;4130;48.740;9.132;2022-07-23T00:55:14;19.60;99.90
8178;DHT22;4130;48.740;9.132;2022-07-23T00:57:41;19.40;99.90
8178;DHT22;4130;48.740;9.132;2022-07-23T01:00:11;19.20;99.90
8178;DHT22;4130;48.740;9.132;2022-07-23T01:02:39;19.20;99.90
8178;DHT22;4130;48.740;9.132;2022-07-23T01:05:07;19.10;99.90
8178;DHT22;4130;48.740;9.132;2022-07-23T01:07:34;19.30;99.90
8178;DHT22;4130;48.740;9.132;2022-07-23T01:10:03;19.40;99.90
8178;DHT22;4130;48.740;9.132;2022-07-23T01:12:31;19.40;99.90
8178;DHT22;4130;48.740;9.132;2022-07-23T01:14:59;19.50;99.90
8178;DHT22;4130;48.740;9.132;2022-07-23T01:17:27;19.70;99.90
8178;DHT22;4130;48.740;9.132;2022-07-23T01:19:54;19.80;99.90
8178;DHT22;4130;48.740;9.132;2022-07-23T01:22:20;19.90;99.90
8178;DHT22;4130;48.740;9.132;2022-07-23T01:24:49;20.10;99.90
8178;DHT22;4130;48.740;9.132;2022-07-23T01:27:15;20.20;99.90
8178;DHT22;4130;48.740;9.132;2022-07-23T01:29:45;20.30;99.90
8178;DHT22;4130;48.740;9.132;2022-07-23T01:32:11;20.40;99.90
8178;DHT22;4130;48.740;9.132;2022-07-23T01:34:38;20.40;99.90
8178;DHT22;4130;48.740;9.132;2022-07-23T01:37:06;20.50;99.90
8178;DHT22;4130;48.740;9.132;2022-07-23T01:39:33;20.50;99.90
8178;DHT22;4130;48.740;9.132;2022-07-23T01:42:01;20.60;99.90
8178;DHT22;4130;48.740;9.132;2022-07-23T01:44:28;20.70;99.90
8178;DHT22;4130;48.740;9.132;2022-07-23T01:46:55;20.50;99.90
8178;DHT22;4130;48.740;9.132;2022-07-23T01:49:22;20.40;99.90
8178;DHT22;4130;48.740;9.132;2022-07-23T01:51:49;20.30;99.90
8178;DHT22;4130;48.740;9.132;2022-07-23T01:54:33;20.20;99.90
8178;DHT22;4130;48.740;9.132;2022-07-23T01:57:01;20.10;99.90
8178;DHT22;4130;48.740;9.132;2022-07-23T01:59:28;20.00;99.90
8178;DHT22;4130;48.740;9.132;2022-07-23T02:01:55;19.90;99.90
8178;DHT22;4130;48.740;9.132;2022-07-23T02:04:23;19.90;99.90
8178;DHT22;4130;48.740;9.132;2022-07-23T02:06:51;19.80;99.90
8178;DHT22;4130;48.740;9.132;2022-07-23T02:09:18;19.80;99.90
8178;DHT22;4130;48.740;9.132;2022-07-23T02:11:45;19.80;99.90
8178;DHT22;4130;48.740;9.132;2022-07-23T02:14:13;19.80;99.90
8178;DHT22;4130;48.740;9.132;2022-07-23T02:16:40;19.70;99.90
8178;DHT22;4130;48.740;9.132;2022-07-23T02:19:07;19.70;99.90
8178;DHT22;4130;48.740;9.132;2022-07-23T02:21:34;20.20;99.90
8178;DHT22;4130;48.740;9.132;2022-07-23T02:24:01;19.60;99.90
8178;DHT22;4130;48.740;9.132;2022-07-23T02:26:28;19.50;99.90
8178;DHT22;4130;48.740;9.132;2022-07-23T02:28:54;19.50;99.90
8178;DHT22;4130;48.740;9.132;2022-07-23T02:31:23;19.50;99.90
8178;DHT22;4130;48.740;9.132;2022-07-23T02:33:49;19.50;99.90
8178;DHT22;4130;48.740;9.132;2022-07-23T02:36:16;19.40;99.90
8178;DHT22;4130;48.740;9.132;2022-07-23T02:38:43;19.40;99.90
8178;DHT22;4130;48.740;9.132;2022-07-23T02:41:10;19.70;99.90
8178;DHT22;4130;48.740;9.132;2022-07-23T02:43:36;19.30;99.90
8178;DHT22;4130;48.740;9.132;2022-07-23T02:46:03;19.40;99.90
8178;DHT22;4130;48.740;9.132;2022-07-23T02:48:31;19.50;99.90
8178;DHT22;4130;48.740;9.132;2022-07-23T02:50:58;19.50;99.90
8178;DHT22;4130;48.740;9.132;2022-07-23T02:53:25;19.40;99.90
8178;DHT22;4130;48.740;9.132;2022-07-23T02:55:52;19.40;99.90
8178;DHT22;4130;48.740;9.132;2022-07-23T02:58:19;19.40;99.90
8178;DHT22;4130;48.740;9.132;2022-07-23T03:00:46;19.60;99.90
8178;DHT22;4130;48.740;9.132;2022-07-23T03:03:13;19.70;99.90
8178;DHT22;4130;48.740;9.132;2022-07-23T03:05:41;19.70;99.90
8178;DHT22;4130;48.740;9.132;2022-07-23T03:08:08;19.70;99.90
8178;DHT22;4130;48.740;9.132;2022-07-23T03:10:35;19.60;99.90
8178;DHT22;4130;48.740;9.132;2022-07-23T03:13:02;19.70;99.90
8178;DHT22;4130;48.740;9.132;2022-07-23T03:15:29;19.70;99.90
8178;DHT22;4130;48.740;9.132;2022-07-23T03:17:55;19.70;99.90
8178;DHT22;4130;48.740;9.132;2022-07-23T03:20:22;19.70;99.90
8178;DHT22;4130;48.740;9.132;2022-07-23T03:22:50;19.70;99.90
8178;DHT22;4130;48.740;9.132;2022-07-23T03:25:17;19.70;99.90
8178;DHT22;4130;48.740;9.132;2022-07-23T03:27:44;19.70;99.90
8178;DHT22;4130;48.740;9.132;2022-07-23T03:30:12;19.70;99.90
8178;DHT22;4130;48.740;9.132;2022-07-23T03:32:38;19.70;99.90
8178;DHT22;4130;48.740;9.132;2022-07-23T03:35:06;19.70;99.90
8178;DHT22;4130;48.740;9.132;2022-07-23T03:37:33;19.70;99.90
8178;DHT22;4130;48.740;9.132;2022-07-23T03:40:01;19.60;99.90
8178;DHT22;4130;48.740;9.132;2022-07-23T03:42:29;19.60;99.90
8178;DHT22;4130;48.740;9.132;2022-07-23T03:44:55;19.60;99.90
8178;DHT22;4130;48.740;9.132;2022-07-23T03:47:22;19.60;99.90
8178;DHT22;4130;48.740;9.132;2022-07-23T03:49:49;19.40;99.90
8178;DHT22;4130;48.740;9.132;2022-07-23T03:52:16;19.60;99.90
8178;DHT22;4130;48.740;9.132;2022-07-23T03:54:43;19.60;99.90
8178;DHT22;4130;48.740;9.132;2022-07-23T03:57:11;19.50;99.90
8178;DHT22;4130;48.740;9.132;2022-07-23T03:59:37;19.50;99.90
8178;DHT22;4130;48.740;9.132;2022-07-23T04:02:04;19.30;99.90
8178;DHT22;4130;48.740;9.132;2022-07-23T04:04:31;19.40;99.90
8178;DHT22;4130;48.740;9.132;2022-07-23T04:06:58;19.40;99.90
8178;DHT22;4130;48.740;9.132;2022-07-23T04:09:25;19.40;99.90
8178;DHT22;4130;48.740;9.132;2022-07-23T04:11:51;19.40;99.90
8178;DHT22;4130;48.740;9.132;2022-07-23T04:14:20;19.50;99.90
8178;DHT22;4130;48.740;9.132;2022-07-23T04:16:46;19.60;99.90
8178;DHT22;4130;48.740;9.132;2022-07-23T04:19:13;19.70;99.90
8178;DHT22;4130;48.740;9.132;2022-07-23T04:21:40;20.10;99.90
8178;DHT22;4130;48.740;9.132;2022-07-23T04:24:07;19.80;99.90
8178;DHT22;4130;48.740;9.132;2022-07-23T04:26:34;19.80;99.90
8178;DHT22;4130;48.740;9.132;2022-07-23T04:29:00;19.90;99.90
8178;DHT22;4130;48.740;9.132;2022-07-23T04:31:29;19.90;99.90
8178;DHT22;4130;48.740;9.132;2022-07-23T04:33:56;20.00;99.90
8178;DHT22;4130;48.740;9.132;2022-07-23T04:36:23;20.10;99.90
8178;DHT22;4130;48.740;9.132;2022-07-23T04:38:49;20.10;99.90
8178;DHT22;4130;48.740;9.132;2022-07-23T04:41:16;20.10;99.90
8178;DHT22;4130;48.740;9.132;2022-07-23T04:43:43;20.00;99.90
8178;DHT22;4130;48.740;9.132;2022-07-23T04:46:10;20.10;99.90
8178;DHT22;4130;48.740;9.132;2022-07-23T04:48:38;20.00;99.90
8178;DHT22;4130;48.740;9.132;2022-07-23T04:51:07;20.30;99.90
8178;DHT22;4130;48.740;9.132;2022-07-23T04:53:36;20.00;99.90
8178;DHT22;4130;48.740;9.132;2022-07-23T04:56:03;20.10;99.90
8178;DHT22;4130;48.740;9.132;2022-07-23T04:58:30;20.10;99.90
8178;DHT22;4130;48.740;9.132;2022-07-23T05:00:58;20.20;99.90
8178;DHT22;4130;48.740;9.132;2022-07-23T05:03:24;20.30;99.90
8178;DHT22;4130;48.740;9.132;2022-07-23T05:05:53;20.90;99.90
8178;DHT22;4130;48.740;9.132;2022-07-23T05:08:19;20.50;99.90
8178;DHT22;4130;48.740;9.132;2022-07-23T05:10:46;20.60;99.90
8178;DHT22;4130;48.740;9.132;2022-07-23T05:13:14;20.70;99.90
8178;DHT22;4130;48.740;9.132;2022-07-23T05:15:41;20.70;99.90
8178;DHT22;4130;48.740;9.132;2022-07-23T05:18:08;20.70;99.90
8178;DHT22;4130;48.740;9.132;2022-07-23T05:20:35;20.70;99.90
8178;DHT22;4130;48.740;9.132;2022-07-23T05:23:03;20.70;99.90
8178;DHT22;4130;48.740;9.132;2022-07-23T05:25:30;20.80;99.90
8178;DHT22;4130;48.740;9.132;2022-07-23T05:27:57;21.60;99.90
8178;DHT22;4130;48.740;9.132;2022-07-23T05:30:24;21.00;99.90
8178;DHT22;4130;48.740;9.132;2022-07-23T05:32:51;21.20;99.90
8178;DHT22;4130;48.740;9.132;2022-07-23T05:35:20;21.40;99.90
8178;DHT22;4130;48.740;9.132;2022-07-23T05:37:47;21.50;99.90
8178;DHT22;4130;48.740;9.132;2022-07-23T05:40:16;21.70;99.90
8178;DHT22;4130;48.740;9.132;2022-07-23T05:42:42;21.70;99.90
8178;DHT22;4130;48.740;9.132;2022-07-23T05:45:10;21.70;99.90
8178;DHT22;4130;48.740;9.132;2022-07-23T05:47:41;21.70;99.90
8178;DHT22;4130;48.740;9.132;2022-07-23T05:50:09;21.80;99.90
8178;DHT22;4130;48.740;9.132;2022-07-23T05:52:36;21.80;99.90
8178;DHT22;4130;48.740;9.132;2022-07-23T05:55:03;21.90;99.90
8178;DHT22;4130;48.740;9.132;2022-07-23T05:57:31;21.90;99.90
8178;DHT22;4130;48.740;9.132;2022-07-23T05:59:58;21.90;99.90
8178;DHT22;4130;48.740;9.132;2022-07-23T06:02:25;22.20;99.90
8178;DHT22;4130;48.740;9.132;2022-07-23T06:04:51;22.00;99.90
8178;DHT22;4130;48.740;9.132;2022-07-23T06:07:18;22.00;99.90
8178;DHT22;4130;48.740;9.132;2022-07-23T06:09:45;22.10;99.90
8178;DHT22;4130;48.740;9.132;2022-07-23T06:12:12;22.10;99.90
8178;DHT22;4130;48.740;9.132;2022-07-23T06:14:40;22.20;99.90
8178;DHT22;4130;48.740;9.132;2022-07-23T06:17:08;22.30;99.90
8178;DHT22;4130;48.740;9.132;2022-07-23T06:19:34;22.40;99.90
8178;DHT22;4130;48.740;9.132;2022-07-23T06:22:01;22.60;99.90
8178;DHT22;4130;48.740;9.132;2022-07-23T06:24:28;22.70;99.90
8178;DHT22;4130;48.740;9.132;2022-07-23T06:26:55;22.70;99.90
8178;DHT22;4130;48.740;9.132;2022-07-23T06:29:22;22.70;99.90
8178;DHT22;4130;48.740;9.132;2022-07-23T06:31:50;22.70;99.90
8178;DHT22;4130;48.740;9.132;2022-07-23T06:34:17;22.80;99.90
8178;DHT22;4130;48.740;9.132;2022-07-23T06:36:44;22.90;99.90
8178;DHT22;4130;48.740;9.132;2022-07-23T06:39:10;23.00;99.90
8178;DHT22;4130;48.740;9.132;2022-07-23T06:41:37;23.00;99.90
8178;DHT22;4130;48.740;9.132;2022-07-23T06:44:04;23.20;99.90
8178;DHT22;4130;48.740;9.132;2022-07-23T06:46:31;23.50;99.90
8178;DHT22;4130;48.740;9.132;2022-07-23T06:49:00;23.70;99.90
8178;DHT22;4130;48.740;9.132;2022-07-23T06:51:27;23.90;99.90
8178;DHT22;4130;48.740;9.132;2022-07-23T06:53:54;24.10;99.90
8178;DHT22;4130;48.740;9.132;2022-07-23T06:56:20;23.90;99.90
8178;DHT22;4130;48.740;9.132;2022-07-23T06:58:47;23.90;99.90
8178;DHT22;4130;48.740;9.132;2022-07-23T07:01:14;23.80;99.90
8178;DHT22;4130;48.740;9.132;2022-07-23T07:03:41;23.70;99.90
8178;DHT22;4130;48.740;9.132;2022-07-23T07:06:09;23.70;99.90
8178;DHT22;4130;48.740;9.132;2022-07-23T07:08:36;23.60;99.90
8178;DHT22;4130;48.740;9.132;2022-07-23T07:11:03;23.70;99.90
8178;DHT22;4130;48.740;9.132;2022-07-23T07:13:30;23.70;99.90
8178;DHT22;4130;48.740;9.132;2022-07-23T07:15:56;23.70;99.90
8178;DHT22;4130;48.740;9.132;2022-07-23T07:18:24;23.60;99.90
8178;DHT22;4130;48.740;9.132;2022-07-23T07:20:50;23.40;99.90
8178;DHT22;4130;48.740;9.132;2022-07-23T07:23:19;23.10;99.90
8178;DHT22;4130;48.740;9.132;2022-07-23T07:25:46;22.90;99.90
8178;DHT22;4130;48.740;9.132;2022-07-23T07:28:13;22.60;99.90
8178;DHT22;4130;48.740;9.132;2022-07-23T07:30:40;22.50;99.90
8178;DHT22;4130;48.740;9.132;2022-07-23T07:33:07;22.40;99.90
8178;DHT22;4130;48.740;9.132;2022-07-23T07:35:33;22.30;99.90
8178;DHT22;4130;48.740;9.132;2022-07-23T07:38:00;22.20;99.90
8178;DHT22;4130;48.740;9.132;2022-07-23T07:40:28;22.30;99.90
8178;DHT22;4130;48.740;9.132;2022-07-23T07:42:55;22.50;99.90
8178;DHT22;4130;48.740;9.132;2022-07-23T07:45:24;23.10;99.90
8178;DHT22;4130;48.740;9.132;2022-07-23T07:47:51;23.80;99.90
8178;DHT22;4130;48.740;9.132;2022-07-23T07:50:19;24.30;99.90
8178;DHT22;4130;48.740;9.132;2022-07-23T07:52:45;24.90;99.90
8178;DHT22;4130;48.740;9.132;2022-07-23T07:55:13;25.60;99.90
8178;DHT22;4130;48.740;9.132;2022-07-23T07:57:41;26.00;99.90
8178;DHT22;4130;48.740;9.132;2022-07-23T08:00:09;26.30;99.90
8178;DHT22;4130;48.740;9.132;2022-07-23T08:02:41;26.70;98.80
8178;DHT22;4130;48.740;9.132;2022-07-23T08:05:08;26.80;98.80
8178;DHT22;4130;48.740;9.132;2022-07-23T08:07:36;27.00;98.30
8178;DHT22;4130;48.740;9.132;2022-07-23T08:10:05;26.50;97.70
8178;DHT22;4130;48.740;9.132;2022-07-23T08:12:38;26.30;97.90
8178;DHT22;4130;48.740;9.132;2022-07-23T08:15:08;26.00;97.80
8178;DHT22;4130;48.740;9.132;2022-07-23T08:17:35;25.80;98.00
8178;DHT22;4130;48.740;9.132;2022-07-23T08:20:02;25.20;97.80
8178;DHT22;4130;48.740;9.132;2022-07-23T08:22:42;24.80;98.30
8178;DHT22;4130;48.740;9.132;2022-07-23T08:25:09;24.30;99.40
8178;DHT22;4130;48.740;9.132;2022-07-23T08:27:36;24.00;99.20
8178;DHT22;4130;48.740;9.132;2022-07-23T08:30:04;23.90;98.90
8178;DHT22;4130;48.740;9.132;2022-07-23T08:32:32;23.70;99.60
8178;DHT22;4130;48.740;9.132;2022-07-23T08:34:59;23.60;99.90
8178;DHT22;4130;48.740;9.132;2022-07-23T08:37:26;23.70;99.90
8178;DHT22;4130;48.740;9.132;2022-07-23T08:39:53;23.80;99.90
8178;DHT22;4130;48.740;9.132;2022-07-23T08:42:21;24.10;99.90
8178;DHT22;4130;48.740;9.132;2022-07-23T08:44:48;24.60;99.90
8178;DHT22;4130;48.740;9.132;2022-07-23T08:47:16;25.00;99.90
8178;DHT22;4130;48.740;9.132;2022-07-23T08:49:44;25.20;99.40
8178;DHT22;4130;48.740;9.132;2022-07-23T08:52:14;25.60;99.60
8178;DHT22;4130;48.740;9.132;2022-07-23T08:54:41;26.00;98.70
8178;DHT22;4130;48.740;9.132;2022-07-23T08:57:08;26.40;98.40
8178;DHT22;4130;48.740;9.132;2022-07-23T08:59:35;27.00;96.30
8178;DHT22;4130;48.740;9.132;2022-07-23T09:02:01;27.00;96.50
8178;DHT22;4130;48.740;9.132;2022-07-23T09:04:28;26.60;95.50
8178;DHT22;4130;48.740;9.132;2022-07-23T09:06:56;25.80;96.50
8178;DHT22;4130;48.740;9.132;2022-07-23T09:09:23;25.70;96.90
8178;DHT22;4130;48.740;9.132;2022-07-23T09:12:02;26.00;97.40
8178;DHT22;4130;48.740;9.132;2022-07-23T09:14:37;26.60;95.90
8178;DHT22;4130;48.740;9.132;2022-07-23T09:17:11;26.90;94.70
8178;DHT22;4130;48.740;9.132;2022-07-23T09:19:38;27.10;95.60
8178;DHT22;4130;48.740;9.132;2022-07-23T09:22:20;27.40;94.90
8178;DHT22;4130;48.740;9.132;2022-07-23T09:25:07;28.40;94.80
8178;DHT22;4130;48.740;9.132;2022-07-23T09:27:53;29.30;94.60
8178;DHT22;4130;48.740;9.132;2022-07-23T09:30:22;30.20;93.00
8178;DHT22;4130;48.740;9.132;2022-07-23T09:33:09;31.10;93.20
8178;DHT22;4130;48.740;9.132;2022-07-23T09:35:49;31.40;90.60
8178;DHT22;4130;48.740;9.132;2022-07-23T09:38:18;31.40;91.40
8178;DHT22;4130;48.740;9.132;2022-07-23T09:40:46;31.00;90.20
8178;DHT22;4130;48.740;9.132;2022-07-23T09:43:14;30.60;90.30
8178;DHT22;4130;48.740;9.132;2022-07-23T09:45:51;30.60;90.10
8178;DHT22;4130;48.740;9.132;2022-07-23T09:48:18;30.60;90.00
8178;DHT22;4130;48.740;9.132;2022-07-23T09:50:45;30.80;89.40
8178;DHT22;4130;48.740;9.132;2022-07-23T09:53:25;30.80;89.30
8178;DHT22;4130;48.740;9.132;2022-07-23T09:55:53;30.80;89.40
8178;DHT22;4130;48.740;9.132;2022-07-23T09:58:23;30.60;87.80
8178;DHT22;4130;48.740;9.132;2022-07-23T10:00:53;30.40;88.80
8178;DHT22;4130;48.740;9.132;2022-07-23T10:03:20;30.50;89.50
8178;DHT22;4130;48.740;9.132;2022-07-23T10:05:48;30.50;89.60
8178;DHT22;4130;48.740;9.132;2022-07-23T10:08:17;30.70;90.00
8178;DHT22;4130;48.740;9.132;2022-07-23T10:10:46;31.40;89.30
8178;DHT22;4130;48.740;9.132;2022-07-23T10:13:14;31.70;87.50
8178;DHT22;4130;48.740;9.132;2022-07-23T10:16:03;31.90;86.70
8178;DHT22;4130;48.740;9.132;2022-07-23T10:18:30;31.70;86.10
8178;DHT22;4130;48.740;9.132;2022-07-23T10:20:58;31.20;86.50
8178;DHT22;4130;48.740;9.132;2022-07-23T10:23:31;31.10;87.40
8178;DHT22;4130;48.740;9.132;2022-07-23T10:26:05;30.90;87.40
8178;DHT22;4130;48.740;9.132;2022-07-23T10:28:46;31.20;88.20
8178;DHT22;4130;48.740;9.132;2022-07-23T10:31:28;31.20;87.50
8178;DHT22;4130;48.740;9.132;2022-07-23T10:34:06;31.40;88.60
8178;DHT22;4130;48.740;9.132;2022-07-23T10:36:42;31.90;88.20
8178;DHT22;4130;48.740;9.132;2022-07-23T10:39:19;32.20;86.60
8178;DHT22;4130;48.740;9.132;2022-07-23T10:41:51;31.70;85.30
8178;DHT22;4130;48.740;9.132;2022-07-23T10:44:19;31.30;86.70
8178;DHT22;4130;48.740;9.132;2022-07-23T10:46:57;30.90;87.10
8178;DHT22;4130;48.740;9.132;2022-07-23T10:49:41;30.50;88.40
8178;DHT22;4130;48.740;9.132;2022-07-23T10:52:24;30.20;87.80
8178;DHT22;4130;48.740;9.132;2022-07-23T10:54:54;30.20;88.10
8178;DHT22;4130;48.740;9.132;2022-07-23T10:57:23;29.80;88.00
8178;DHT22;4130;48.740;9.132;2022-07-23T11:00:20;29.40;88.20
8178;DHT22;4130;48.740;9.132;2022-07-23T11:02:49;29.60;89.30
8178;DHT22;4130;48.740;9.132;2022-07-23T11:05:18;30.10;87.50
8178;DHT22;4130;48.740;9.132;2022-07-23T11:08:11;30.40;88.30
8178;DHT22;4130;48.740;9.132;2022-07-23T11:10:43;31.00;86.50
8178;DHT22;4130;48.740;9.132;2022-07-23T11:16:27;31.60;86.90
8178;DHT22;4130;48.740;9.132;2022-07-23T11:21:48;32.30;86.40
8178;DHT22;4130;48.740;9.132;2022-07-23T11:24:17;31.90;84.50
8178;DHT22;4130;48.740;9.132;2022-07-23T11:26:49;31.60;85.90
8178;DHT22;4130;48.740;9.132;2022-07-23T11:29:42;31.60;84.40
8178;DHT22;4130;48.740;9.132;2022-07-23T11:32:19;31.40;85.20
8178;DHT22;4130;48.740;9.132;2022-07-23T11:34:49;31.60;86.60
8178;DHT22;4130;48.740;9.132;2022-07-23T11:37:28;31.90;84.90
8178;DHT22;4130;48.740;9.132;2022-07-23T11:39:55;32.30;85.40
8178;DHT22;4130;48.740;9.132;2022-07-23T11:42:23;33.00;85.00
8178;DHT22;4130;48.740;9.132;2022-07-23T11:44:51;33.40;82.60
8178;DHT22;4130;48.740;9.132;2022-07-23T11:47:23;33.50;82.40
8178;DHT22;4130;48.740;9.132;2022-07-23T11:49:56;33.50;82.80
8178;DHT22;4130;48.740;9.132;2022-07-23T11:52:24;32.80;82.80
8178;DHT22;4130;48.740;9.132;2022-07-23T11:54:52;32.20;83.10
8178;DHT22;4130;48.740;9.132;2022-07-23T11:57:20;32.00;83.70
8178;DHT22;4130;48.740;9.132;2022-07-23T11:59:51;32.30;84.70
8178;DHT22;4130;48.740;9.132;2022-07-23T12:02:20;32.70;84.60
8178;DHT22;4130;48.740;9.132;2022-07-23T12:04:49;33.20;83.50
8178;DHT22;4130;48.740;9.132;2022-07-23T12:07:30;33.70;81.50
8178;DHT22;4130;48.740;9.132;2022-07-23T12:09:59;33.60;82.00
8178;DHT22;4130;48.740;9.132;2022-07-23T12:12:27;33.00;81.70
8178;DHT22;4130;48.740;9.132;2022-07-23T12:14:55;32.60;82.10
8178;DHT22;4130;48.740;9.132;2022-07-23T12:17:29;32.30;82.70
8178;DHT22;4130;48.740;9.132;2022-07-23T12:19:58;32.50;83.50
8178;DHT22;4130;48.740;9.132;2022-07-23T12:22:32;32.60;82.20
8178;DHT22;4130;48.740;9.132;2022-07-23T12:25:02;32.50;80.90
8178;DHT22;4130;48.740;9.132;2022-07-23T12:27:30;31.80;82.80
8178;DHT22;4130;48.740;9.132;2022-07-23T12:29:57;31.30;82.80
8178;DHT22;4130;48.740;9.132;2022-07-23T12:32:27;31.10;82.10
8178;DHT22;4130;48.740;9.132;2022-07-23T12:35:04;30.80;82.40
8178;DHT22;4130;48.740;9.132;2022-07-23T12:37:34;30.70;83.60
8178;DHT22;4130;48.740;9.132;2022-07-23T12:40:24;30.90;84.40
8178;DHT22;4130;48.740;9.132;2022-07-23T12:42:53;31.40;83.60
8178;DHT22;4130;48.740;9.132;2022-07-23T12:45:21;31.70;83.20
8178;DHT22;4130;48.740;9.132;2022-07-23T12:47:56;32.00;82.20
8178;DHT22;4130;48.740;9.132;2022-07-23T12:50:34;31.90;81.50
8178;DHT22;4130;48.740;9.132;2022-07-23T12:53:03;31.90;82.60
8178;DHT22;4130;48.740;9.132;2022-07-23T12:55:30;31.80;82.90
8178;DHT22;4130;48.740;9.132;2022-07-23T12:58:04;31.60;83.30
8178;DHT22;4130;48.740;9.132;2022-07-23T13:00:31;31.70;82.90
8178;DHT22;4130;48.740;9.132;2022-07-23T13:02:58;31.80;83.10
8178;DHT22;4130;48.740;9.132;2022-07-23T13:05:27;32.20;83.70
8178;DHT22;4130;48.740;9.132;2022-07-23T13:07:57;31.90;82.20
8178;DHT22;4130;48.740;9.132;2022-07-23T13:10:25;31.50;82.70
8178;DHT22;4130;48.740;9.132;2022-07-23T13:12:53;31.40;82.60
8178;DHT22;4130;48.740;9.132;2022-07-23T13:15:20;31.40;82.10
8178;DHT22;4130;48.740;9.132;2022-07-23T13:17:47;31.10;82.60
8178;DHT22;4130;48.740;9.132;2022-07-23T13:20:14;31.20;82.30
8178;DHT22;4130;48.740;9.132;2022-07-23T13:22:41;31.40;83.20
8178;DHT22;4130;48.740;9.132;2022-07-23T13:25:09;31.60;81.70
8178;DHT22;4130;48.740;9.132;2022-07-23T13:27:36;31.90;82.10
8178;DHT22;4130;48.740;9.132;2022-07-23T13:30:03;32.00;81.00
8178;DHT22;4130;48.740;9.132;2022-07-23T13:32:31;32.20;81.80
8178;DHT22;4130;48.740;9.132;2022-07-23T13:34:58;32.00;81.10
8178;DHT22;4130;48.740;9.132;2022-07-23T13:37:25;32.00;80.70
8178;DHT22;4130;48.740;9.132;2022-07-23T13:39:52;31.90;82.10
8178;DHT22;4130;48.740;9.132;2022-07-23T13:42:20;31.90;82.20
8178;DHT22;4130;48.740;9.132;2022-07-23T13:44:47;31.80;80.90
8178;DHT22;4130;48.740;9.132;2022-07-23T13:47:13;31.50;81.00
8178;DHT22;4130;48.740;9.132;2022-07-23T13:49:40;31.10;80.80
8178;DHT22;4130;48.740;9.132;2022-07-23T13:52:07;31.00;81.50
8178;DHT22;4130;48.740;9.132;2022-07-23T13:54:34;30.90;81.60
8178;DHT22;4130;48.740;9.132;2022-07-23T13:57:01;30.80;82.40
8178;DHT22;4130;48.740;9.132;2022-07-23T13:59:29;30.50;81.30
8178;DHT22;4130;48.740;9.132;2022-07-23T14:01:56;30.00;81.80
8178;DHT22;4130;48.740;9.132;2022-07-23T14:04:23;29.80;82.60
8178;DHT22;4130;48.740;9.132;2022-07-23T14:06:50;29.60;83.00
8178;DHT22;4130;48.740;9.132;2022-07-23T14:09:16;29.50;83.50
8178;DHT22;4130;48.740;9.132;2022-07-23T14:11:43;29.60;83.60
8178;DHT22;4130;48.740;9.132;2022-07-23T14:14:10;29.50;84.30
8178;DHT22;4130;48.740;9.132;2022-07-23T14:16:38;29.50;83.70
8178;DHT22;4130;48.740;9.132;2022-07-23T14:19:05;29.50;83.10
8178;DHT22;4130;48.740;9.132;2022-07-23T14:21:32;29.70;84.00
8178;DHT22;4130;48.740;9.132;2022-07-23T14:23:59;29.70;83.20
8178;DHT22;4130;48.740;9.132;2022-07-23T14:26:26;29.70;82.90
8178;DHT22;4130;48.740;9.132;2022-07-23T14:28:53;29.90;83.00
8178;DHT22;4130;48.740;9.132;2022-07-23T14:31:20;30.20;83.10
8178;DHT22;4130;48.740;9.132;2022-07-23T14:33:48;30.40;82.70
8178;DHT22;4130;48.740;9.132;2022-07-23T14:36:15;30.50;82.80
8178;DHT22;4130;48.740;9.132;2022-07-23T14:38:42;30.40;80.70
8178;DHT22;4130;48.740;9.132;2022-07-23T14:41:09;30.30;80.00
8178;DHT22;4130;48.740;9.132;2022-07-23T14:43:37;30.30;80.40
8178;DHT22;4130;48.740;9.132;2022-07-23T14:46:05;30.20;80.50
8178;DHT22;4130;48.740;9.132;2022-07-23T14:48:32;30.00;80.40
8178;DHT22;4130;48.740;9.132;2022-07-23T14:51:00;30.00;81.20
8178;DHT22;4130;48.740;9.132;2022-07-23T14:53:26;30.00;80.80
8178;DHT22;4130;48.740;9.132;2022-07-23T14:55:53;30.00;80.70
8178;DHT22;4130;48.740;9.132;2022-07-23T14:58:22;30.20;80.80
8178;DHT22;4130;48.740;9.132;2022-07-23T15:00:49;30.40;80.40
8178;DHT22;4130;48.740;9.132;2022-07-23T15:03:16;30.30;80.00
8178;DHT22;4130;48.740;9.132;2022-07-23T15:05:43;30.10;79.50
8178;DHT22;4130;48.740;9.132;2022-07-23T15:08:11;29.90;80.00
8178;DHT22;4130;48.740;9.132;2022-07-23T15:10:38;29.80;78.70
8178;DHT22;4130;48.740;9.132;2022-07-23T15:13:04;29.70;79.80
8178;DHT22;4130;48.740;9.132;2022-07-23T15:15:31;29.80;81.20
8178;DHT22;4130;48.740;9.132;2022-07-23T15:17:58;30.20;80.50
8178;DHT22;4130;48.740;9.132;2022-07-23T15:20:27;30.40;80.20
8178;DHT22;4130;48.740;9.132;2022-07-23T15:22:55;30.50;80.10
8178;DHT22;4130;48.740;9.132;2022-07-23T15:25:23;30.50;79.30
8178;DHT22;4130;48.740;9.132;2022-07-23T15:27:50;30.50;80.20
8178;DHT22;4130;48.740;9.132;2022-07-23T15:30:17;30.40;79.70
8178;DHT22;4130;48.740;9.132;2022-07-23T15:32:44;30.30;79.90
8178;DHT22;4130;48.740;9.132;2022-07-23T15:35:11;30.10;80.10
8178;DHT22;4130;48.740;9.132;2022-07-23T15:37:37;30.20;80.80
8178;DHT22;4130;48.740;9.132;2022-07-23T15:40:06;30.20;80.90
8178;DHT22;4130;48.740;9.132;2022-07-23T15:42:34;30.10;80.60
8178;DHT22;4130;48.740;9.132;2022-07-23T15:45:05;29.90;80.00
8178;DHT22;4130;48.740;9.132;2022-07-23T15:47:32;29.80;80.80
8178;DHT22;4130;48.740;9.132;2022-07-23T15:49:58;29.70;80.90
8178;DHT22;4130;48.740;9.132;2022-07-23T15:52:25;29.80;80.50
8178;DHT22;4130;48.740;9.132;2022-07-23T15:54:55;29.70;81.30
8178;DHT22;4130;48.740;9.132;2022-07-23T15:57:22;29.90;81.90
8178;DHT22;4130;48.740;9.132;2022-07-23T15:59:50;29.80;81.30
8178;DHT22;4130;48.740;9.132;2022-07-23T16:02:18;29.70;81.20
8178;DHT22;4130;48.740;9.132;2022-07-23T16:04:45;29.50;81.30
8178;DHT22;4130;48.740;9.132;2022-07-23T16:07:12;29.30;81.40
8178;DHT22;4130;48.740;9.132;2022-07-23T16:09:42;29.00;82.00
8178;DHT22;4130;48.740;9.132;2022-07-23T16:12:09;28.80;81.50
8178;DHT22;4130;48.740;9.132;2022-07-23T16:14:36;28.60;82.20
8178;DHT22;4130;48.740;9.132;2022-07-23T16:17:05;28.50;83.00